sensor_id;sensor_type;location;lat;lon;timestamp;pressure;altitude;pressure_sealevel;temperature;humidity
20368;BME280;10343;52.402;9.796;2023-03-01T00:01:49;102558.09;;;5.97;47.51
20368;BME280;10343;52.402;9.796;2023-03-01T00:04:17;102569.94;;;5.47;48.39
20368;BME280;10343;52.402;9.796;2023-03-01T00:06:45;102567.19;;;5.44;48.56
20368;BME280;10343;52.402;9.796;2023-03-01T00:09:14;102574.72;;;5.32;48.90
20368;BME280;10343;52.402;9.796;2023-03-01T00:11:43;102562.91;;;5.48;48.22
20368;BME280;10343;52.402;9.796;2023-03-01T00:14:12;102574.31;;;5.48;48.96
20368;BME280;10343;52.402;9.796;2023-03-01T00:16:42;102583.50;;;5.31;48.57
20368;BME280;10343;52.402;9.796;2023-03-01T00:19:14;102581.63;;;5.26;49.38
20368;BME280;10343;52.402;9.796;2023-03-01T00:21:42;102584.41;;;5.33;49.08
20368;BME280;10343;52.402;9.796;2023-03-01T00:24:11;102586.78;;;5.23;49.66
20368;BME280;10343;52.402;9.796;2023-03-01T00:26:39;102584.03;;;5.20;48.63
20368;BME280;10343;52.402;9.796;2023-03-01T00:29:07;102592.09;;;5.25;48.90
20368;BME280;10343;52.402;9.796;2023-03-01T00:31:35;102579.66;;;5.19;49.33
20368;BME280;10343;52.402;9.796;2023-03-01T00:34:05;102569.97;;;5.18;49.39
20368;BME280;10343;52.402;9.796;2023-03-01T00:36:35;102568.34;;;5.54;48.81
20368;BME280;10343;52.402;9.796;2023-03-01T00:39:07;102562.94;;;5.81;47.96
20368;BME280;10343;52.402;9.796;2023-03-01T00:41:35;102569.25;;;5.54;48.25
20368;BME280;10343;52.402;9.796;2023-03-01T00:44:03;102569.31;;;5.57;48.28
20368;BME280;10343;52.402;9.796;2023-03-01T00:46:31;102577.88;;;5.18;49.23
20368;BME280;10343;52.402;9.796;2023-03-01T00:49:01;102575.03;;;5.12;49.65
20368;BME280;10343;52.402;9.796;2023-03-01T00:51:31;102567.09;;;5.10;49.49
20368;BME280;10343;52.402;9.796;2023-03-01T00:54:02;102561.25;;;5.19;49.66
20368;BME280;10343;52.402;9.796;2023-03-01T00:56:30;102559.00;;;5.03;49.78
20368;BME280;10343;52.402;9.796;2023-03-01T00:58:59;102565.16;;;5.03;49.72
20368;BME280;10343;52.402;9.796;2023-03-01T01:01:29;102561.13;;;5.16;49.11
20368;BME280;10343;52.402;9.796;2023-03-01T01:04:00;102550.75;;;5.51;49.11
20368;BME280;10343;52.402;9.796;2023-03-01T01:06:30;102558.09;;;5.33;48.65
20368;BME280;10343;52.402;9.796;2023-03-01T01:09:01;102559.38;;;5.15;48.76
20368;BME280;10343;52.402;9.796;2023-03-01T01:11:30;102555.19;;;4.93;49.45
20368;BME280;10343;52.402;9.796;2023-03-01T01:13:58;102560.97;;;5.10;49.46
20368;BME280;10343;52.402;9.796;2023-03-01T01:16:29;102558.72;;;4.93;49.82
20368;BME280;10343;52.402;9.796;2023-03-01T01:18:57;102553.63;;;5.00;49.69
20368;BME280;10343;52.402;9.796;2023-03-01T01:21:27;102550.09;;;4.98;49.57
20368;BME280;10343;52.402;9.796;2023-03-01T01:23:58;102548.16;;;4.92;50.22
20368;BME280;10343;52.402;9.796;2023-03-01T01:26:30;102544.84;;;4.98;49.87
20368;BME280;10343;52.402;9.796;2023-03-01T01:29:00;102549.38;;;5.03;50.03
20368;BME280;10343;52.402;9.796;2023-03-01T01:31:28;102549.09;;;5.24;49.08
20368;BME280;10343;52.402;9.796;2023-03-01T01:33:57;102539.28;;;5.49;48.29
20368;BME280;10343;52.402;9.796;2023-03-01T01:36:26;102538.19;;;5.42;48.88
20368;BME280;10343;52.402;9.796;2023-03-01T01:38:55;102537.81;;;5.60;48.05
20368;BME280;10343;52.402;9.796;2023-03-01T01:41:24;102535.06;;;5.56;48.58
20368;BME280;10343;52.402;9.796;2023-03-01T01:44:12;102535.06;;;5.24;48.82
20368;BME280;10343;52.402;9.796;2023-03-01T01:46:47;102526.72;;;5.07;48.98
20368;BME280;10343;52.402;9.796;2023-03-01T01:49:24;102533.59;;;5.03;48.91
20368;BME280;10343;52.402;9.796;2023-03-01T01:51:57;102530.47;;;4.86;49.48
20368;BME280;10343;52.402;9.796;2023-03-01T01:54:32;102529.22;;;5.04;49.87
20368;BME280;10343;52.402;9.796;2023-03-01T01:57:10;102532.59;;;5.00;50.10
20368;BME280;10343;52.402;9.796;2023-03-01T01:59:42;102526.81;;;4.81;49.64
20368;BME280;10343;52.402;9.796;2023-03-01T02:02:11;102528.31;;;4.73;50.27
20368;BME280;10343;52.402;9.796;2023-03-01T02:04:40;102523.66;;;4.64;49.91
20368;BME280;10343;52.402;9.796;2023-03-01T02:07:14;102532.97;;;4.54;50.09
20368;BME280;10343;52.402;9.796;2023-03-01T02:09:46;102527.59;;;4.79;49.91
20368;BME280;10343;52.402;9.796;2023-03-01T02:12:16;102524.56;;;4.65;50.23
20368;BME280;10343;52.402;9.796;2023-03-01T02:14:46;102519.09;;;4.58;50.71
20368;BME280;10343;52.402;9.796;2023-03-01T02:17:16;102523.53;;;4.59;50.51
20368;BME280;10343;52.402;9.796;2023-03-01T02:19:53;102511.78;;;4.48;50.79
20368;BME280;10343;52.402;9.796;2023-03-01T02:22:27;102517.09;;;4.50;50.92
20368;BME280;10343;52.402;9.796;2023-03-01T02:25:07;102515.25;;;4.47;50.70
20368;BME280;10343;52.402;9.796;2023-03-01T02:27:48;102512.53;;;4.44;51.12
20368;BME280;10343;52.402;9.796;2023-03-01T02:30:21;102517.44;;;4.61;50.61
20368;BME280;10343;52.402;9.796;2023-03-01T02:32:51;102520.59;;;4.50;50.99
20368;BME280;10343;52.402;9.796;2023-03-01T02:35:22;102519.38;;;4.39;51.35
20368;BME280;10343;52.402;9.796;2023-03-01T02:37:50;102517.88;;;4.47;50.80
20368;BME280;10343;52.402;9.796;2023-03-01T02:40:19;102511.53;;;4.40;51.21
20368;BME280;10343;52.402;9.796;2023-03-01T02:42:51;102502.91;;;4.45;50.58
20368;BME280;10343;52.402;9.796;2023-03-01T02:45:24;102506.25;;;4.39;51.22
20368;BME280;10343;52.402;9.796;2023-03-01T02:47:53;102503.16;;;4.52;50.72
20368;BME280;10343;52.402;9.796;2023-03-01T02:50:44;102496.00;;;5.06;49.85
20368;BME280;10343;52.402;9.796;2023-03-01T02:53:17;102495.63;;;4.93;49.65
20368;BME280;10343;52.402;9.796;2023-03-01T02:55:49;102496.69;;;4.70;49.85
20368;BME280;10343;52.402;9.796;2023-03-01T02:58:18;102486.38;;;4.47;50.58
20368;BME280;10343;52.402;9.796;2023-03-01T03:00:47;102489.56;;;4.66;50.28
20368;BME280;10343;52.402;9.796;2023-03-01T03:03:17;102475.72;;;4.42;51.22
20368;BME280;10343;52.402;9.796;2023-03-01T03:05:46;102467.56;;;4.92;50.05
20368;BME280;10343;52.402;9.796;2023-03-01T03:08:15;102466.72;;;4.93;49.25
20368;BME280;10343;52.402;9.796;2023-03-01T03:10:51;102464.03;;;5.22;48.68
20368;BME280;10343;52.402;9.796;2023-03-01T03:13:21;102459.50;;;4.86;49.52
20368;BME280;10343;52.402;9.796;2023-03-01T03:15:56;102454.34;;;5.21;48.86
20368;BME280;10343;52.402;9.796;2023-03-01T03:18:25;102449.16;;;5.24;48.58
20368;BME280;10343;52.402;9.796;2023-03-01T03:20:53;102457.13;;;4.65;49.85
20368;BME280;10343;52.402;9.796;2023-03-01T03:23:22;102446.06;;;5.07;49.27
20368;BME280;10343;52.402;9.796;2023-03-01T03:25:50;102455.03;;;5.14;49.29
20368;BME280;10343;52.402;9.796;2023-03-01T03:28:18;102457.59;;;5.11;48.56
20368;BME280;10343;52.402;9.796;2023-03-01T03:30:46;102464.13;;;4.95;49.66
20368;BME280;10343;52.402;9.796;2023-03-01T03:33:16;102452.47;;;5.17;48.83
20368;BME280;10343;52.402;9.796;2023-03-01T03:35:46;102456.78;;;4.83;49.08
20368;BME280;10343;52.402;9.796;2023-03-01T03:38:17;102454.09;;;5.12;48.79
20368;BME280;10343;52.402;9.796;2023-03-01T03:40:50;102446.06;;;5.07;48.92
20368;BME280;10343;52.402;9.796;2023-03-01T03:43:20;102448.84;;;5.14;48.94
20368;BME280;10343;52.402;9.796;2023-03-01T03:45:50;102447.47;;;4.95;49.23
20368;BME280;10343;52.402;9.796;2023-03-01T03:48:20;102444.50;;;5.14;48.78
20368;BME280;10343;52.402;9.796;2023-03-01T03:50:50;102441.19;;;4.89;49.04
20368;BME280;10343;52.402;9.796;2023-03-01T03:53:18;102449.41;;;4.70;50.20
20368;BME280;10343;52.402;9.796;2023-03-01T03:55:46;102443.16;;;4.66;49.71
20368;BME280;10343;52.402;9.796;2023-03-01T03:58:16;102452.22;;;4.47;50.43
20368;BME280;10343;52.402;9.796;2023-03-01T04:00:48;102454.34;;;4.03;50.58
20368;BME280;10343;52.402;9.796;2023-03-01T04:03:17;102456.63;;;3.92;51.06
20368;BME280;10343;52.402;9.796;2023-03-01T04:05:48;102461.06;;;3.95;51.15
20368;BME280;10343;52.402;9.796;2023-03-01T04:08:17;102459.38;;;3.97;51.00
20368;BME280;10343;52.402;9.796;2023-03-01T04:10:49;102454.41;;;4.33;50.79
20368;BME280;10343;52.402;9.796;2023-03-01T04:13:19;102457.06;;;4.06;51.16
20368;BME280;10343;52.402;9.796;2023-03-01T04:15:48;102461.88;;;3.92;51.64
20368;BME280;10343;52.402;9.796;2023-03-01T04:18:18;102462.09;;;3.98;51.90
20368;BME280;10343;52.402;9.796;2023-03-01T04:20:49;102469.75;;;3.92;51.75
20368;BME280;10343;52.402;9.796;2023-03-01T04:23:22;102468.25;;;4.00;51.66
20368;BME280;10343;52.402;9.796;2023-03-01T04:25:51;102468.22;;;3.99;51.48
20368;BME280;10343;52.402;9.796;2023-03-01T04:28:23;102469.00;;;3.96;51.43
20368;BME280;10343;52.402;9.796;2023-03-01T04:30:52;102467.34;;;3.98;51.18
20368;BME280;10343;52.402;9.796;2023-03-01T04:33:21;102469.75;;;3.92;51.42
20368;BME280;10343;52.402;9.796;2023-03-01T04:35:51;102472.28;;;3.89;51.42
20368;BME280;10343;52.402;9.796;2023-03-01T04:38:20;102475.72;;;3.88;51.49
20368;BME280;10343;52.402;9.796;2023-03-01T04:40:48;102478.22;;;3.83;51.69
20368;BME280;10343;52.402;9.796;2023-03-01T04:43:17;102472.56;;;3.71;52.15
20368;BME280;10343;52.402;9.796;2023-03-01T04:45:45;102478.91;;;3.78;52.30
20368;BME280;10343;52.402;9.796;2023-03-01T04:48:13;102472.13;;;3.59;52.48
20368;BME280;10343;52.402;9.796;2023-03-01T04:50:41;102453.91;;;3.63;52.95
20368;BME280;10343;52.402;9.796;2023-03-01T04:53:11;102463.63;;;3.66;52.99
20368;BME280;10343;52.402;9.796;2023-03-01T04:55:40;102466.84;;;3.57;52.92
20368;BME280;10343;52.402;9.796;2023-03-01T04:58:09;102464.91;;;3.51;53.27
20368;BME280;10343;52.402;9.796;2023-03-01T05:00:37;102465.72;;;3.76;52.68
20368;BME280;10343;52.402;9.796;2023-03-01T05:03:08;102464.22;;;3.57;53.29
20368;BME280;10343;52.402;9.796;2023-03-01T05:05:38;102463.00;;;3.47;53.12
20368;BME280;10343;52.402;9.796;2023-03-01T05:08:08;102464.25;;;3.33;53.75
20368;BME280;10343;52.402;9.796;2023-03-01T05:10:47;102460.25;;;3.44;53.57
20368;BME280;10343;52.402;9.796;2023-03-01T05:13:16;102465.00;;;3.30;53.50
20368;BME280;10343;52.402;9.796;2023-03-01T05:15:48;102455.88;;;3.43;53.12
20368;BME280;10343;52.402;9.796;2023-03-01T05:18:19;102445.16;;;3.37;53.53
20368;BME280;10343;52.402;9.796;2023-03-01T05:20:47;102448.41;;;3.30;53.89
20368;BME280;10343;52.402;9.796;2023-03-01T05:23:15;102441.59;;;3.35;53.48
20368;BME280;10343;52.402;9.796;2023-03-01T05:25:45;102446.63;;;3.29;54.02
20368;BME280;10343;52.402;9.796;2023-03-01T05:28:13;102444.97;;;3.31;53.48
20368;BME280;10343;52.402;9.796;2023-03-01T05:30:43;102446.13;;;3.39;53.77
20368;BME280;10343;52.402;9.796;2023-03-01T05:33:18;102442.59;;;3.38;53.57
20368;BME280;10343;52.402;9.796;2023-03-01T05:35:49;102449.47;;;3.35;53.79
20368;BME280;10343;52.402;9.796;2023-03-01T05:38:18;102441.59;;;3.35;53.48
20368;BME280;10343;52.402;9.796;2023-03-01T05:40:48;102444.56;;;3.46;53.29
20368;BME280;10343;52.402;9.796;2023-03-01T05:43:17;102437.09;;;3.31;53.72
20368;BME280;10343;52.402;9.796;2023-03-01T05:45:45;102446.19;;;3.16;54.48
20368;BME280;10343;52.402;9.796;2023-03-01T05:48:13;102444.56;;;3.20;54.04
20368;BME280;10343;52.402;9.796;2023-03-01T05:50:42;102440.13;;;3.17;53.96
20368;BME280;10343;52.402;9.796;2023-03-01T05:53:14;102437.81;;;3.02;54.88
20368;BME280;10343;52.402;9.796;2023-03-01T05:55:43;102443.56;;;3.16;54.19
20368;BME280;10343;52.402;9.796;2023-03-01T05:58:16;102447.53;;;3.05;54.69
20368;BME280;10343;52.402;9.796;2023-03-01T06:00:45;102445.31;;;3.16;54.78
20368;BME280;10343;52.402;9.796;2023-03-01T06:03:16;102448.59;;;3.10;54.59
20368;BME280;10343;52.402;9.796;2023-03-01T06:05:45;102452.34;;;3.17;54.84
20368;BME280;10343;52.402;9.796;2023-03-01T06:08:16;102446.50;;;3.26;54.54
20368;BME280;10343;52.402;9.796;2023-03-01T06:11:04;102450.31;;;3.34;54.17
20368;BME280;10343;52.402;9.796;2023-03-01T06:13:35;102449.03;;;3.48;54.20
20368;BME280;10343;52.402;9.796;2023-03-01T06:16:04;102446.50;;;3.77;52.84
20368;BME280;10343;52.402;9.796;2023-03-01T06:18:33;102449.88;;;3.73;52.94
20368;BME280;10343;52.402;9.796;2023-03-01T06:21:01;102448.38;;;3.81;53.07
20368;BME280;10343;52.402;9.796;2023-03-01T06:23:29;102451.47;;;3.68;53.01
20368;BME280;10343;52.402;9.796;2023-03-01T06:25:57;102451.56;;;3.71;52.58
20368;BME280;10343;52.402;9.796;2023-03-01T06:28:25;102453.34;;;3.46;53.96
20368;BME280;10343;52.402;9.796;2023-03-01T06:30:55;102458.75;;;3.51;53.73
20368;BME280;10343;52.402;9.796;2023-03-01T06:33:23;102453.06;;;3.38;53.47
20368;BME280;10343;52.402;9.796;2023-03-01T06:35:51;102453.44;;;3.49;53.75
20368;BME280;10343;52.402;9.796;2023-03-01T06:38:19;102451.97;;;3.32;54.09
20368;BME280;10343;52.402;9.796;2023-03-01T06:40:51;102459.22;;;3.39;54.16
20368;BME280;10343;52.402;9.796;2023-03-01T06:43:19;102452.09;;;3.35;54.30
20368;BME280;10343;52.402;9.796;2023-03-01T06:45:48;102460.78;;;3.34;54.48
20368;BME280;10343;52.402;9.796;2023-03-01T06:48:17;102460.34;;;3.21;54.96
20368;BME280;10343;52.402;9.796;2023-03-01T06:50:45;102447.56;;;3.31;55.02
20368;BME280;10343;52.402;9.796;2023-03-01T06:53:13;102462.47;;;3.57;54.17
20368;BME280;10343;52.402;9.796;2023-03-01T06:55:41;102449.59;;;3.64;53.77
20368;BME280;10343;52.402;9.796;2023-03-01T06:58:09;102450.13;;;3.55;54.05
20368;BME280;10343;52.402;9.796;2023-03-01T07:00:38;102452.63;;;3.50;54.24
20368;BME280;10343;52.402;9.796;2023-03-01T07:03:08;102447.78;;;3.63;53.34
20368;BME280;10343;52.402;9.796;2023-03-01T07:05:38;102455.28;;;3.78;54.13
20368;BME280;10343;52.402;9.796;2023-03-01T07:08:06;102457.44;;;3.64;54.04
20368;BME280;10343;52.402;9.796;2023-03-01T07:10:34;102448.78;;;3.94;52.68
20368;BME280;10343;52.402;9.796;2023-03-01T07:13:02;102454.41;;;3.79;52.91
20368;BME280;10343;52.402;9.796;2023-03-01T07:15:30;102449.44;;;3.86;53.01
20368;BME280;10343;52.402;9.796;2023-03-01T07:17:59;102447.78;;;3.88;52.63
20368;BME280;10343;52.402;9.796;2023-03-01T07:20:27;102443.75;;;4.00;52.61
20368;BME280;10343;52.402;9.796;2023-03-01T07:22:57;102442.75;;;3.96;52.70
20368;BME280;10343;52.402;9.796;2023-03-01T07:25:35;102449.06;;;4.01;52.39
20368;BME280;10343;52.402;9.796;2023-03-01T07:28:03;102438.28;;;4.21;52.07
20368;BME280;10343;52.402;9.796;2023-03-01T07:30:31;102432.91;;;4.45;51.80
20368;BME280;10343;52.402;9.796;2023-03-01T07:32:59;102428.53;;;4.76;50.97
20368;BME280;10343;52.402;9.796;2023-03-01T07:35:28;102433.88;;;4.20;51.68
20368;BME280;10343;52.402;9.796;2023-03-01T07:37:57;102425.06;;;4.47;51.64
20368;BME280;10343;52.402;9.796;2023-03-01T07:40:25;102420.19;;;4.59;50.95
20368;BME280;10343;52.402;9.796;2023-03-01T07:42:55;102425.78;;;4.71;50.54
20368;BME280;10343;52.402;9.796;2023-03-01T07:45:25;102426.66;;;4.72;50.80
20368;BME280;10343;52.402;9.796;2023-03-01T07:47:53;102417.72;;;4.97;49.54
20368;BME280;10343;52.402;9.796;2023-03-01T07:50:22;102416.56;;;4.55;50.33
20368;BME280;10343;52.402;9.796;2023-03-01T07:52:50;102418.25;;;4.53;50.81
20368;BME280;10343;52.402;9.796;2023-03-01T07:55:19;102412.69;;;4.73;50.67
20368;BME280;10343;52.402;9.796;2023-03-01T07:57:47;102419.72;;;5.04;49.28
20368;BME280;10343;52.402;9.796;2023-03-01T08:00:16;102423.06;;;4.99;50.47
20368;BME280;10343;52.402;9.796;2023-03-01T08:02:45;102426.22;;;4.56;50.69
20368;BME280;10343;52.402;9.796;2023-03-01T08:05:21;102427.09;;;4.87;49.96
20368;BME280;10343;52.402;9.796;2023-03-01T08:07:49;102422.06;;;4.95;50.09
20368;BME280;10343;52.402;9.796;2023-03-01T08:10:17;102425.75;;;5.34;49.76
20368;BME280;10343;52.402;9.796;2023-03-01T08:12:47;102409.75;;;5.26;50.08
20368;BME280;10343;52.402;9.796;2023-03-01T08:15:15;102422.72;;;5.18;50.28
20368;BME280;10343;52.402;9.796;2023-03-01T08:17:45;102423.31;;;5.09;50.33
20368;BME280;10343;52.402;9.796;2023-03-01T08:20:13;102423.81;;;5.26;50.21
20368;BME280;10343;52.402;9.796;2023-03-01T08:22:42;102418.34;;;5.89;47.67
20368;BME280;10343;52.402;9.796;2023-03-01T08:25:10;102419.78;;;5.41;49.00
20368;BME280;10343;52.402;9.796;2023-03-01T08:27:39;102411.41;;;5.56;48.56
20368;BME280;10343;52.402;9.796;2023-03-01T08:30:13;102407.56;;;5.78;48.11
20368;BME280;10343;52.402;9.796;2023-03-01T08:32:41;102415.38;;;5.75;48.66
20368;BME280;10343;52.402;9.796;2023-03-01T08:35:09;102411.97;;;5.79;48.54
20368;BME280;10343;52.402;9.796;2023-03-01T08:37:37;102411.84;;;6.49;46.71
20368;BME280;10343;52.402;9.796;2023-03-01T08:40:06;102412.06;;;6.19;46.58
20368;BME280;10343;52.402;9.796;2023-03-01T08:42:36;102409.13;;;5.35;47.82
20368;BME280;10343;52.402;9.796;2023-03-01T08:45:05;102406.03;;;5.51;48.14
20368;BME280;10343;52.402;9.796;2023-03-01T08:47:35;102405.59;;;6.06;46.50
20368;BME280;10343;52.402;9.796;2023-03-01T08:50:03;102411.53;;;5.97;46.63
20368;BME280;10343;52.402;9.796;2023-03-01T08:52:32;102413.75;;;5.80;47.27
20368;BME280;10343;52.402;9.796;2023-03-01T08:55:00;102411.28;;;5.88;46.85
20368;BME280;10343;52.402;9.796;2023-03-01T08:57:29;102408.09;;;5.65;47.37
20368;BME280;10343;52.402;9.796;2023-03-01T08:59:57;102415.44;;;6.13;46.39
20368;BME280;10343;52.402;9.796;2023-03-01T09:02:25;102414.41;;;6.46;45.77
20368;BME280;10343;52.402;9.796;2023-03-01T09:04:54;102416.03;;;6.01;46.58
20368;BME280;10343;52.402;9.796;2023-03-01T09:07:23;102408.22;;;6.44;45.40
20368;BME280;10343;52.402;9.796;2023-03-01T09:09:54;102402.13;;;6.46;45.35
20368;BME280;10343;52.402;9.796;2023-03-01T09:12:22;102410.63;;;6.35;45.54
20368;BME280;10343;52.402;9.796;2023-03-01T09:14:51;102405.25;;;6.28;45.41
20368;BME280;10343;52.402;9.796;2023-03-01T09:17:19;102393.25;;;6.87;44.58
20368;BME280;10343;52.402;9.796;2023-03-01T09:19:48;102393.09;;;7.76;43.01
20368;BME280;10343;52.402;9.796;2023-03-01T09:22:17;102399.75;;;7.52;42.84
20368;BME280;10343;52.402;9.796;2023-03-01T09:24:45;102388.50;;;7.65;43.43
20368;BME280;10343;52.402;9.796;2023-03-01T09:27:14;102384.44;;;7.88;42.53
20368;BME280;10343;52.402;9.796;2023-03-01T09:29:45;102383.41;;;8.36;42.29
20368;BME280;10343;52.402;9.796;2023-03-01T09:32:13;102382.19;;;8.14;41.59
20368;BME280;10343;52.402;9.796;2023-03-01T09:34:41;102378.72;;;7.58;41.93
20368;BME280;10343;52.402;9.796;2023-03-01T09:37:28;102372.53;;;8.14;40.67
20368;BME280;10343;52.402;9.796;2023-03-01T09:39:56;102370.13;;;8.34;40.71
20368;BME280;10343;52.402;9.796;2023-03-01T09:42:24;102377.09;;;7.16;42.05
20368;BME280;10343;52.402;9.796;2023-03-01T09:44:56;102376.28;;;7.19;42.50
20368;BME280;10343;52.402;9.796;2023-03-01T09:47:27;102375.84;;;7.44;41.96
20368;BME280;10343;52.402;9.796;2023-03-01T09:50:03;102376.63;;;7.92;40.76
20368;BME280;10343;52.402;9.796;2023-03-01T09:52:39;102371.75;;;8.22;39.75
20368;BME280;10343;52.402;9.796;2023-03-01T09:55:11;102374.00;;;8.57;39.92
20368;BME280;10343;52.402;9.796;2023-03-01T09:57:49;102363.78;;;8.92;39.95
20368;BME280;10343;52.402;9.796;2023-03-01T10:00:33;102369.75;;;8.07;40.33
20368;BME280;10343;52.402;9.796;2023-03-01T10:03:11;102367.94;;;8.65;39.72
20368;BME280;10343;52.402;9.796;2023-03-01T10:05:59;102368.31;;;9.01;39.23
20368;BME280;10343;52.402;9.796;2023-03-01T10:08:40;102364.94;;;9.16;39.13
20368;BME280;10343;52.402;9.796;2023-03-01T10:11:20;102358.09;;;9.43;39.14
20368;BME280;10343;52.402;9.796;2023-03-01T10:13:55;102359.19;;;9.68;38.32
20368;BME280;10343;52.402;9.796;2023-03-01T10:16:34;102370.97;;;9.01;38.79
20368;BME280;10343;52.402;9.796;2023-03-01T10:19:22;102365.72;;;9.06;38.62
20368;BME280;10343;52.402;9.796;2023-03-01T10:21:51;102365.28;;;8.65;38.76
20368;BME280;10343;52.402;9.796;2023-03-01T10:24:20;102377.53;;;8.57;39.39
20368;BME280;10343;52.402;9.796;2023-03-01T10:26:54;102381.28;;;8.12;40.07
20368;BME280;10343;52.402;9.796;2023-03-01T10:29:26;102370.22;;;8.41;39.17
20368;BME280;10343;52.402;9.796;2023-03-01T10:31:57;102376.75;;;8.67;39.05
20368;BME280;10343;52.402;9.796;2023-03-01T10:34:29;102359.31;;;8.85;38.82
20368;BME280;10343;52.402;9.796;2023-03-01T10:37:01;102364.91;;;8.36;39.15
20368;BME280;10343;52.402;9.796;2023-03-01T10:39:55;102365.34;;;8.73;38.57
20368;BME280;10343;52.402;9.796;2023-03-01T10:42:27;102354.31;;;9.13;38.71
20368;BME280;10343;52.402;9.796;2023-03-01T10:44:57;102354.50;;;9.31;38.03
20368;BME280;10343;52.402;9.796;2023-03-01T10:47:27;102348.75;;;9.93;36.71
20368;BME280;10343;52.402;9.796;2023-03-01T10:49:59;102354.31;;;9.13;37.01
20368;BME280;10343;52.402;9.796;2023-03-01T10:52:31;102355.69;;;8.77;37.58
20368;BME280;10343;52.402;9.796;2023-03-01T10:55:03;102362.94;;;8.23;38.84
20368;BME280;10343;52.402;9.796;2023-03-01T10:57:38;102357.69;;;8.26;38.20
20368;BME280;10343;52.402;9.796;2023-03-01T11:00:21;102362.19;;;9.05;37.69
20368;BME280;10343;52.402;9.796;2023-03-01T11:03:01;102347.50;;;9.40;37.26
20368;BME280;10343;52.402;9.796;2023-03-01T11:05:30;102352.38;;;8.96;37.57
20368;BME280;10343;52.402;9.796;2023-03-01T11:08:02;102347.09;;;10.07;36.09
20368;BME280;10343;52.402;9.796;2023-03-01T11:10:33;102333.53;;;9.61;36.59
20368;BME280;10343;52.402;9.796;2023-03-01T11:13:12;102337.34;;;10.01;36.02
20368;BME280;10343;52.402;9.796;2023-03-01T11:15:43;102327.94;;;10.76;34.99
20368;BME280;10343;52.402;9.796;2023-03-01T11:18:19;102335.69;;;10.28;35.24
20368;BME280;10343;52.402;9.796;2023-03-01T11:20:58;102328.66;;;10.30;35.04
20368;BME280;10343;52.402;9.796;2023-03-01T11:23:28;102338.13;;;9.90;36.38
20368;BME280;10343;52.402;9.796;2023-03-01T11:26:02;102333.25;;;9.25;36.92
20368;BME280;10343;52.402;9.796;2023-03-01T11:28:32;102335.16;;;9.42;37.20
20368;BME280;10343;52.402;9.796;2023-03-01T11:31:05;102333.16;;;10.51;36.81
20368;BME280;10343;52.402;9.796;2023-03-01T11:33:39;102327.09;;;10.94;34.86
20368;BME280;10343;52.402;9.796;2023-03-01T11:36:23;102324.25;;;10.35;35.51
20368;BME280;10343;52.402;9.796;2023-03-01T11:38:55;102322.75;;;9.34;36.68
20368;BME280;10343;52.402;9.796;2023-03-01T11:41:26;102324.91;;;9.90;36.32
20368;BME280;10343;52.402;9.796;2023-03-01T11:43:59;102315.94;;;9.71;36.09
20368;BME280;10343;52.402;9.796;2023-03-01T11:49:50;102305.84;;;10.79;34.55
20368;BME280;10343;52.402;9.796;2023-03-01T11:52:30;102303.16;;;10.76;34.07
20368;BME280;10343;52.402;9.796;2023-03-01T11:55:17;102303.81;;;10.10;34.36
20368;BME280;10343;52.402;9.796;2023-03-01T11:58:00;102296.88;;;10.40;35.00
20368;BME280;10343;52.402;9.796;2023-03-01T12:00:45;102290.81;;;10.88;34.19
20368;BME280;10343;52.402;9.796;2023-03-01T12:03:27;102290.59;;;10.20;34.10
20368;BME280;10343;52.402;9.796;2023-03-01T12:09:11;102290.47;;;9.96;34.76
20368;BME280;10343;52.402;9.796;2023-03-01T12:11:56;102282.84;;;10.93;33.32
20368;BME280;10343;52.402;9.796;2023-03-01T12:14:46;102282.84;;;11.18;33.44
20368;BME280;10343;52.402;9.796;2023-03-01T12:17:40;102279.31;;;11.41;32.48
20368;BME280;10343;52.402;9.796;2023-03-01T12:20:20;102283.47;;;10.06;34.09
20368;BME280;10343;52.402;9.796;2023-03-01T12:23:16;102273.91;;;10.42;33.97
20368;BME280;10343;52.402;9.796;2023-03-01T12:25:55;102269.59;;;11.01;33.24
20368;BME280;10343;52.402;9.796;2023-03-01T12:28:45;102268.66;;;10.76;32.33
20368;BME280;10343;52.402;9.796;2023-03-01T12:34:55;102264.19;;;10.39;34.40
20368;BME280;10343;52.402;9.796;2023-03-01T12:37:39;102253.66;;;11.19;33.24
20368;BME280;10343;52.402;9.796;2023-03-01T12:40:19;102256.97;;;10.09;34.69
20368;BME280;10343;52.402;9.796;2023-03-01T12:42:58;102241.09;;;10.15;34.48
20368;BME280;10343;52.402;9.796;2023-03-01T12:45:40;102238.34;;;9.89;34.73
20368;BME280;10343;52.402;9.796;2023-03-01T12:48:22;102236.84;;;10.82;33.83
20368;BME280;10343;52.402;9.796;2023-03-01T12:50:54;102227.13;;;10.81;33.25
20368;BME280;10343;52.402;9.796;2023-03-01T12:53:27;102233.31;;;11.06;32.96
20368;BME280;10343;52.402;9.796;2023-03-01T12:56:00;102220.06;;;10.69;33.38
20368;BME280;10343;52.402;9.796;2023-03-01T12:58:32;102221.78;;;11.38;32.46
20368;BME280;10343;52.402;9.796;2023-03-01T13:01:25;102221.81;;;10.73;33.19
20368;BME280;10343;52.402;9.796;2023-03-01T13:04:06;102212.03;;;11.45;32.35
20368;BME280;10343;52.402;9.796;2023-03-01T13:06:44;102222.69;;;11.14;32.25
20368;BME280;10343;52.402;9.796;2023-03-01T13:09:20;102219.16;;;10.90;32.49
20368;BME280;10343;52.402;9.796;2023-03-01T13:11:51;102212.09;;;11.08;32.41
20368;BME280;10343;52.402;9.796;2023-03-01T13:14:36;102215.59;;;10.45;33.46
20368;BME280;10343;52.402;9.796;2023-03-01T13:17:39;102204.97;;;10.42;33.59
20368;BME280;10343;52.402;9.796;2023-03-01T13:20:13;102209.41;;;10.46;32.80
20368;BME280;10343;52.402;9.796;2023-03-01T13:22:45;102206.63;;;10.15;33.86
20368;BME280;10343;52.402;9.796;2023-03-01T13:25:20;102198.78;;;10.35;33.24
20368;BME280;10343;52.402;9.796;2023-03-01T13:30:59;102180.97;;;11.64;32.27
20368;BME280;10343;52.402;9.796;2023-03-01T13:33:40;102182.81;;;11.31;32.86
20368;BME280;10343;52.402;9.796;2023-03-01T13:36:45;102176.38;;;12.07;31.70
20368;BME280;10343;52.402;9.796;2023-03-01T13:39:27;102183.75;;;11.22;33.20